createdAt,value
2023-03-06T00:02:26.825Z,14.77
2023-03-06T00:04:54.295Z,15.23
2023-03-06T00:07:21.821Z,15.27
2023-03-06T00:09:49.640Z,14.37
2023-03-06T00:12:17.169Z,15.00
2023-03-06T00:14:46.014Z,15.20
2023-03-06T00:17:13.540Z,14.73
2023-03-06T00:19:41.054Z,15.40
2023-03-06T00:22:08.571Z,16.00
2023-03-06T00:24:36.101Z,16.20
2023-03-06T00:27:03.595Z,16.17
2023-03-06T00:29:31.140Z,15.53
2023-03-06T00:32:00.002Z,15.30
2023-03-06T00:34:27.543Z,14.53
2023-03-06T00:36:55.139Z,16.53
2023-03-06T00:39:23.508Z,14.77
2023-03-06T00:41:51.023Z,15.83
2023-03-06T00:44:18.533Z,14.77
2023-03-06T00:46:46.065Z,14.90
2023-03-06T00:49:15.032Z,14.87
2023-03-06T00:51:42.520Z,14.97
2023-03-06T00:54:10.041Z,14.00
2023-03-06T00:56:37.548Z,14.30
2023-03-06T00:59:05.072Z,14.07
2023-03-06T01:01:32.611Z,16.03
2023-03-06T01:04:00.122Z,14.43
2023-03-06T01:06:29.109Z,14.87
2023-03-06T01:08:56.616Z,14.93
2023-03-06T01:11:24.114Z,15.93
2023-03-06T01:13:51.596Z,14.37
2023-03-06T01:16:20.109Z,15.10
2023-03-06T01:18:47.768Z,14.27
2023-03-06T01:21:15.388Z,16.37
2023-03-06T01:23:44.326Z,14.33
2023-03-06T01:26:11.809Z,15.97
2023-03-06T01:28:39.304Z,16.30
2023-03-06T01:31:07.449Z,16.10
2023-03-06T01:33:35.490Z,16.13
2023-03-06T01:36:04.788Z,15.37
2023-03-06T01:38:32.420Z,15.67
2023-03-06T01:41:01.353Z,15.87
2023-03-06T01:43:30.006Z,16.07
2023-03-06T01:46:16.077Z,15.80
2023-03-06T01:48:43.915Z,15.73
2023-03-06T01:51:11.668Z,14.27
2023-03-06T01:53:40.084Z,15.67
2023-03-06T01:56:09.212Z,15.67
2023-03-06T01:58:36.918Z,15.47
2023-03-06T02:01:04.488Z,15.27
2023-03-06T02:03:33.069Z,17.50
2023-03-06T02:06:00.740Z,15.63
2023-03-06T02:08:28.733Z,15.17
2023-03-06T02:10:59.142Z,15.90
2023-03-06T02:13:28.062Z,16.70
2023-03-06T02:15:55.623Z,15.57
2023-03-06T02:18:23.165Z,15.10
2023-03-06T02:20:52.222Z,15.63
2023-03-06T02:23:22.308Z,14.53
2023-03-06T02:25:52.347Z,15.27
2023-03-06T02:28:21.859Z,14.37
2023-03-06T02:30:50.536Z,16.53
2023-03-06T02:33:19.231Z,15.77
2023-03-06T02:35:48.290Z,15.10
2023-03-06T02:38:17.036Z,14.60
2023-03-06T02:40:45.563Z,15.23
2023-03-06T02:43:16.267Z,14.33
2023-03-06T02:45:45.513Z,15.70
2023-03-06T02:48:13.091Z,13.60
2023-03-06T02:50:40.996Z,15.40
2023-03-06T02:53:09.750Z,14.73
2023-03-06T02:55:37.432Z,13.87
2023-03-06T02:58:05.344Z,14.43
2023-03-06T03:00:34.532Z,14.17
2023-03-06T03:03:02.299Z,14.77
2023-03-06T03:05:29.758Z,13.97
2023-03-06T03:07:57.279Z,15.33
2023-03-06T03:10:24.877Z,14.37
2023-03-06T03:12:52.661Z,14.87
2023-03-06T03:15:20.360Z,13.47
2023-03-06T03:17:49.152Z,13.83
2023-03-06T03:20:18.193Z,13.87
2023-03-06T03:22:48.238Z,15.03
2023-03-06T03:25:15.807Z,15.03
2023-03-06T03:27:43.322Z,15.00
2023-03-06T03:30:11.450Z,14.67
2023-03-06T03:32:38.956Z,14.87
2023-03-06T03:35:09.885Z,15.20
2023-03-06T03:37:37.860Z,17.00
2023-03-06T03:40:06.648Z,15.20
2023-03-06T03:42:34.368Z,13.90
2023-03-06T03:45:01.837Z,14.97
2023-03-06T03:47:29.342Z,15.77
2023-03-06T03:49:56.929Z,14.57
2023-03-06T03:52:25.832Z,15.43
2023-03-06T03:54:53.572Z,15.03
2023-03-06T03:57:21.049Z,14.47
2023-03-06T03:59:48.542Z,14.53
2023-03-06T04:02:17.066Z,14.37
2023-03-06T04:04:44.656Z,15.23
2023-03-06T04:07:13.334Z,14.87
2023-03-06T04:09:42.195Z,15.13
2023-03-06T04:12:09.926Z,15.30
2023-03-06T04:14:37.416Z,14.37
2023-03-06T04:17:04.874Z,14.03
2023-03-06T04:19:32.368Z,15.40
2023-03-06T04:21:59.811Z,15.40
2023-03-06T04:24:27.297Z,14.87
2023-03-06T04:26:56.123Z,15.33
2023-03-06T04:29:23.827Z,15.93
2023-03-06T04:31:51.448Z,15.60
2023-03-06T04:34:19.020Z,14.13
2023-03-06T04:36:46.502Z,14.03
2023-03-06T04:39:14.557Z,15.87
2023-03-06T04:41:42.456Z,14.90
2023-03-06T04:44:11.567Z,14.30
2023-03-06T04:46:39.068Z,14.40
2023-03-06T04:49:06.557Z,15.60
2023-03-06T04:51:36.694Z,15.13
2023-03-06T04:54:08.649Z,15.57
2023-03-06T04:56:36.108Z,14.87
2023-03-06T04:59:04.286Z,14.97
2023-03-06T05:01:33.223Z,15.47
2023-03-06T05:04:00.716Z,15.00
2023-03-06T05:06:28.287Z,15.10
2023-03-06T05:08:55.725Z,16.17
2023-03-06T05:11:23.190Z,15.70
2023-03-06T05:13:50.651Z,14.80
2023-03-06T05:16:18.225Z,14.37
2023-03-06T05:18:48.907Z,14.27
2023-03-06T05:21:17.913Z,14.90
2023-03-06T05:23:45.450Z,15.57
2023-03-06T05:26:13.942Z,14.97
2023-03-06T05:28:41.848Z,14.53
2023-03-06T05:31:09.356Z,15.30
2023-03-06T05:33:37.249Z,15.03
2023-03-06T05:36:08.320Z,15.13
2023-03-06T05:38:35.814Z,15.93
2023-03-06T05:41:03.283Z,14.57
2023-03-06T05:43:30.744Z,15.57
2023-03-06T05:46:01.518Z,17.10
2023-03-06T05:48:29.049Z,15.40
2023-03-06T05:50:56.978Z,14.77
2023-03-06T05:53:26.774Z,14.87
2023-03-06T05:55:57.705Z,14.50
2023-03-06T05:58:25.259Z,15.43
2023-03-06T06:00:53.325Z,15.83
2023-03-06T06:03:21.140Z,15.67
2023-03-06T06:05:48.673Z,15.40
2023-03-06T06:08:16.457Z,16.07
2023-03-06T06:10:45.416Z,16.10
2023-03-06T06:13:12.905Z,17.27
2023-03-06T06:15:40.404Z,16.27
2023-03-06T06:18:07.938Z,16.00
2023-03-06T06:20:35.507Z,15.83
2023-03-06T06:23:03.003Z,16.77
2023-03-06T06:25:30.444Z,16.40
2023-03-06T06:27:59.233Z,18.13
2023-03-06T06:30:26.672Z,17.90
2023-03-06T06:32:54.086Z,16.87
2023-03-06T06:35:21.701Z,16.87
2023-03-06T06:37:49.276Z,18.67
2023-03-06T06:40:17.077Z,17.50
2023-03-06T06:42:46.477Z,16.73
2023-03-06T06:45:15.277Z,18.53
2023-03-06T06:47:43.374Z,17.57
2023-03-06T06:50:13.146Z,17.77
2023-03-06T06:52:40.675Z,19.03
2023-03-06T06:55:08.805Z,18.90
2023-03-06T06:57:36.291Z,17.43
2023-03-06T07:00:04.660Z,16.50
2023-03-06T07:02:33.521Z,16.53
2023-03-06T07:05:04.511Z,16.80
2023-03-06T07:07:32.662Z,16.43
2023-03-06T07:10:00.179Z,17.00
2023-03-06T07:12:27.661Z,15.60
2023-03-06T07:14:55.184Z,15.70
2023-03-06T07:17:22.719Z,15.70
2023-03-06T07:19:51.839Z,15.30
2023-03-06T07:22:19.266Z,16.47
2023-03-06T07:24:46.824Z,18.87
2023-03-06T07:27:14.268Z,16.53
2023-03-06T07:29:43.435Z,16.27
2023-03-06T07:32:11.127Z,16.07
2023-03-06T07:34:38.783Z,15.00
2023-03-06T07:37:07.622Z,16.70
2023-03-06T07:39:35.211Z,16.07
2023-03-06T07:42:02.707Z,15.67
2023-03-06T07:44:30.256Z,15.77
2023-03-06T07:46:57.819Z,14.60
2023-03-06T07:49:25.317Z,17.07
2023-03-06T07:51:52.776Z,16.07
2023-03-06T07:54:21.564Z,16.50
2023-03-06T07:56:50.883Z,16.73
2023-03-06T07:59:18.440Z,17.70
2023-03-06T08:01:46.027Z,16.60
2023-03-06T08:04:13.591Z,16.63
2023-03-06T08:06:41.111Z,16.97
2023-03-06T08:09:10.997Z,16.57
2023-03-06T08:11:39.856Z,17.37
2023-03-06T08:14:07.408Z,16.67
2023-03-06T08:16:35.137Z,16.70
2023-03-06T08:19:02.610Z,16.23
2023-03-06T08:21:30.164Z,15.20
2023-03-06T08:23:57.647Z,16.07
2023-03-06T08:26:26.092Z,16.97
2023-03-06T08:28:56.136Z,17.73
2023-03-06T08:31:26.273Z,15.73
2023-03-06T08:33:53.801Z,14.10
2023-03-06T08:36:21.660Z,14.30
2023-03-06T08:38:49.205Z,14.85
2023-03-06T08:41:17.171Z,14.15
2023-03-06T08:43:44.651Z,12.33
2023-03-06T08:46:13.836Z,11.87
2023-03-06T08:48:41.570Z,11.63
2023-03-06T08:51:09.771Z,12.93
2023-03-06T08:53:43.026Z,10.33
2023-03-06T08:56:16.235Z,11.27
2023-03-06T08:58:43.741Z,11.27
2023-03-06T09:01:15.233Z,10.30
2023-03-06T09:03:42.746Z,8.77
2023-03-06T09:06:10.238Z,9.63
2023-03-06T09:08:38.521Z,8.60
2023-03-06T09:11:06.032Z,7.70
2023-03-06T09:13:33.558Z,6.45
2023-03-06T09:16:01.026Z,6.22
2023-03-06T09:18:30.181Z,6.53
2023-03-06T09:20:57.670Z,6.32
2023-03-06T09:23:25.194Z,11.02
2023-03-06T09:25:53.163Z,5.75
2023-03-06T09:28:20.667Z,6.85
2023-03-06T09:30:48.219Z,5.63
2023-03-06T09:33:16.424Z,5.88
2023-03-06T09:35:49.019Z,6.30
2023-03-06T09:38:16.636Z,6.10
2023-03-06T09:40:50.951Z,5.90
2023-03-06T09:43:21.129Z,5.80
2023-03-06T09:45:48.628Z,5.95
2023-03-06T09:48:21.651Z,6.60
2023-03-06T09:50:52.519Z,5.85
2023-03-06T09:53:32.222Z,6.35
2023-03-06T09:56:02.237Z,6.50
2023-03-06T09:58:31.059Z,6.18
2023-03-06T10:01:00.766Z,5.75
2023-03-06T10:03:30.251Z,6.20
2023-03-06T10:06:02.845Z,6.23
2023-03-06T10:08:36.496Z,5.55
2023-03-06T10:11:05.279Z,5.75
2023-03-06T10:13:36.783Z,5.60
2023-03-06T10:16:21.976Z,5.60
2023-03-06T10:18:49.485Z,5.40
2023-03-06T10:21:25.338Z,6.88
2023-03-06T10:23:54.485Z,6.20
2023-03-06T10:26:24.972Z,6.10
2023-03-06T10:28:59.042Z,5.68
2023-03-06T10:31:27.749Z,5.88
2023-03-06T10:33:56.566Z,6.18
2023-03-06T10:36:27.174Z,5.93
2023-03-06T10:38:55.224Z,5.97
2023-03-06T10:41:25.090Z,6.50
2023-03-06T10:44:07.891Z,5.80
2023-03-06T10:46:36.661Z,6.28
2023-03-06T10:49:09.644Z,5.78
2023-03-06T10:51:38.559Z,6.00
2023-03-06T10:54:29.349Z,5.97
2023-03-06T10:56:56.866Z,6.50
2023-03-06T10:59:25.640Z,5.72
2023-03-06T11:01:53.936Z,6.40
2023-03-06T11:04:26.530Z,6.47
2023-03-06T11:07:11.986Z,5.43
2023-03-06T11:09:40.958Z,6.38
2023-03-06T11:12:26.475Z,6.30
2023-03-06T11:15:08.948Z,6.15
2023-03-06T11:17:38.204Z,6.50
2023-03-06T11:20:16.632Z,6.50
2023-03-06T11:22:49.035Z,6.13
2023-03-06T11:25:21.481Z,6.47
2023-03-06T11:27:53.656Z,6.22
2023-03-06T11:30:24.584Z,5.90
2023-03-06T11:32:53.983Z,6.15
2023-03-06T11:35:30.043Z,5.97
2023-03-06T11:37:59.157Z,5.60
2023-03-06T11:40:32.025Z,5.63
2023-03-06T11:43:03.733Z,5.40
2023-03-06T11:45:34.688Z,5.80
2023-03-06T11:48:04.676Z,5.47
2023-03-06T11:50:34.648Z,6.10
2023-03-06T11:53:03.019Z,6.07
2023-03-06T11:55:37.694Z,5.63
2023-03-06T11:58:12.428Z,6.10
2023-03-06T12:00:48.277Z,6.03
2023-03-06T12:03:28.708Z,5.60
2023-03-06T12:06:01.927Z,5.38
2023-03-06T12:08:38.849Z,6.15
2023-03-06T12:11:12.489Z,6.55
2023-03-06T12:13:44.890Z,5.78
2023-03-06T12:16:45.809Z,6.10
2023-03-06T12:19:25.547Z,6.38
2023-03-06T12:21:59.238Z,5.85
2023-03-06T12:24:44.876Z,6.18
2023-03-06T12:27:19.513Z,5.60
2023-03-06T12:30:00.438Z,6.20
2023-03-06T12:32:35.150Z,5.75
2023-03-06T12:35:17.313Z,6.13
2023-03-06T12:38:02.344Z,6.00
2023-03-06T12:40:43.510Z,5.82
2023-03-06T12:43:44.446Z,5.90
2023-03-06T12:46:19.349Z,5.85
2023-03-06T12:49:04.001Z,5.55
2023-03-06T12:51:32.360Z,6.28
2023-03-06T12:54:01.392Z,5.65
2023-03-06T12:56:29.357Z,5.85
2023-03-06T12:59:02.311Z,6.10
2023-03-06T13:01:47.259Z,5.32
2023-03-06T13:04:45.127Z,6.10
2023-03-06T13:07:19.245Z,6.43
2023-03-06T13:09:59.093Z,6.75
2023-03-06T13:15:35.696Z,6.82
2023-03-06T13:18:25.129Z,6.97
2023-03-06T13:20:52.864Z,6.93
2023-03-06T13:23:45.283Z,6.88
2023-03-06T13:26:32.834Z,6.53
2023-03-06T13:29:03.289Z,6.63
2023-03-06T13:31:50.776Z,6.57
2023-03-06T13:34:33.156Z,7.32
2023-03-06T13:37:15.516Z,7.50
2023-03-06T13:39:58.430Z,6.78
2023-03-06T13:42:29.485Z,8.02
2023-03-06T13:44:57.460Z,8.23
2023-03-06T13:47:34.496Z,6.93
2023-03-06T13:50:13.236Z,7.68
2023-03-06T13:52:44.906Z,7.53
2023-03-06T13:55:18.941Z,7.80
2023-03-06T13:57:59.233Z,7.70
2023-03-06T14:00:38.512Z,5.97
2023-03-06T14:03:36.125Z,6.20
2023-03-06T14:06:23.686Z,6.20
2023-03-06T14:08:51.562Z,5.50
2023-03-06T14:11:21.193Z,5.43
2023-03-06T14:13:51.415Z,5.30
2023-03-06T14:16:20.283Z,5.32
2023-03-06T14:18:49.106Z,5.82
2023-03-06T14:21:22.444Z,6.07
2023-03-06T14:24:00.329Z,5.32
2023-03-06T14:26:29.720Z,5.63
2023-03-06T14:28:59.329Z,5.78
2023-03-06T14:31:28.661Z,5.80
2023-03-06T14:33:57.180Z,6.07
2023-03-06T14:36:27.052Z,5.85
2023-03-06T14:38:55.549Z,6.03
2023-03-06T14:41:24.246Z,5.38
2023-03-06T14:43:51.827Z,5.90
2023-03-06T14:46:22.456Z,6.18
2023-03-06T14:48:50.130Z,5.43
2023-03-06T14:51:19.256Z,4.75
2023-03-06T14:53:48.519Z,5.47
2023-03-06T14:56:17.390Z,6.00
2023-03-06T14:58:49.373Z,5.57
2023-03-06T15:01:17.198Z,5.70
2023-03-06T15:03:46.934Z,5.32
2023-03-06T15:06:17.497Z,6.28
2023-03-06T15:08:46.815Z,6.18
2023-03-06T15:11:14.690Z,5.47
2023-03-06T15:13:42.444Z,5.85
2023-03-06T15:16:23.219Z,9.48
2023-03-06T15:18:57.356Z,5.40
2023-03-06T15:21:26.532Z,6.10
2023-03-06T15:23:54.585Z,6.13
2023-03-06T15:26:24.774Z,6.03
2023-03-06T15:29:03.360Z,5.40
2023-03-06T15:31:37.327Z,5.28
2023-03-06T15:34:24.336Z,8.90
2023-03-06T15:36:54.594Z,6.38
2023-03-06T15:39:32.943Z,5.13
2023-03-06T15:42:01.172Z,6.20
2023-03-06T15:44:30.217Z,4.95
2023-03-06T15:47:08.432Z,4.78
2023-03-06T15:49:39.040Z,5.90
2023-03-06T15:52:06.922Z,5.47
2023-03-06T15:54:34.535Z,5.32
2023-03-06T15:57:04.190Z,5.38
2023-03-06T15:59:33.286Z,5.13
2023-03-06T16:02:03.427Z,5.35
2023-03-06T16:04:31.042Z,5.93
2023-03-06T16:06:59.990Z,5.00
2023-03-06T16:09:27.609Z,4.88
2023-03-06T16:11:55.272Z,6.07
2023-03-06T16:14:24.746Z,6.13
2023-03-06T16:16:54.013Z,6.20
2023-03-06T16:19:26.781Z,7.53
2023-03-06T16:21:55.261Z,7.03
2023-03-06T16:24:26.036Z,6.28
2023-03-06T16:26:54.885Z,6.57
2023-03-06T16:29:23.142Z,6.63
2023-03-06T16:31:50.727Z,5.90
2023-03-06T16:34:19.627Z,6.10
2023-03-06T16:36:47.317Z,5.40
2023-03-06T16:39:15.806Z,5.53
2023-03-06T16:41:46.204Z,6.07
2023-03-06T16:44:13.983Z,5.53
2023-03-06T16:46:42.812Z,6.13
2023-03-06T16:49:14.425Z,6.82
2023-03-06T16:51:42.028Z,7.23
2023-03-06T16:54:09.616Z,7.63
2023-03-06T16:56:37.173Z,7.55
2023-03-06T16:59:06.311Z,7.72
2023-03-06T17:01:34.238Z,6.78
2023-03-06T17:04:01.869Z,7.13
2023-03-06T17:06:29.465Z,8.30
2023-03-06T17:08:57.995Z,7.33
2023-03-06T17:11:25.628Z,7.57
2023-03-06T17:13:54.699Z,7.83
2023-03-06T17:16:23.740Z,8.03
2023-03-06T17:18:51.295Z,9.17
2023-03-06T17:21:19.098Z,8.73
2023-03-06T17:23:46.734Z,8.83
2023-03-06T17:26:15.117Z,8.80
2023-03-06T17:28:43.021Z,7.72
2023-03-06T17:31:14.687Z,8.00
2023-03-06T17:33:43.696Z,9.17
2023-03-06T17:36:11.438Z,8.20
2023-03-06T17:38:39.042Z,8.03
2023-03-06T17:41:07.441Z,8.55
2023-03-06T17:43:34.999Z,8.80
2023-03-06T17:46:05.974Z,8.47
2023-03-06T17:48:33.594Z,8.60
2023-03-06T17:51:02.953Z,8.97
2023-03-06T17:53:30.549Z,10.70
2023-03-06T17:55:58.960Z,12.13
2023-03-06T17:58:50.051Z,10.77
2023-03-06T18:01:18.289Z,9.73
2023-03-06T18:03:47.038Z,11.10
2023-03-06T18:06:16.550Z,10.50
2023-03-06T18:08:44.150Z,10.20
2023-03-06T18:11:11.993Z,10.43
2023-03-06T18:13:40.150Z,10.43
2023-03-06T18:16:11.746Z,12.03
2023-03-06T18:18:41.956Z,11.60
2023-03-06T18:21:10.536Z,9.50
2023-03-06T18:23:42.320Z,11.80
2023-03-06T18:26:21.043Z,10.83
2023-03-06T18:28:49.550Z,11.57
2023-03-06T18:31:17.641Z,11.33
2023-03-06T18:33:45.194Z,12.40
2023-03-06T18:36:12.787Z,11.43
2023-03-06T18:38:42.991Z,12.67
2023-03-06T18:41:12.641Z,9.97
2023-03-06T18:43:40.504Z,12.93
2023-03-06T18:46:08.396Z,12.97
2023-03-06T18:48:36.336Z,11.90
2023-03-06T18:51:07.351Z,10.23
2023-03-06T18:53:35.145Z,10.17
2023-03-06T18:56:03.451Z,9.60
2023-03-06T19:06:15.483Z,10.70
2023-03-06T19:08:43.010Z,9.90
2023-03-06T19:11:11.299Z,9.60
2023-03-06T19:13:38.974Z,10.07
2023-03-06T19:16:07.468Z,9.70
2023-03-06T19:18:35.145Z,11.03
2023-03-06T19:21:09.412Z,10.70
2023-03-06T19:23:39.406Z,12.33
2023-03-06T19:26:08.465Z,11.40
2023-03-06T19:28:37.244Z,10.37
2023-03-06T19:31:08.922Z,10.97
2023-03-06T19:33:37.485Z,11.00
2023-03-06T19:36:05.625Z,10.17
2023-03-06T19:38:33.730Z,13.73
2023-03-06T19:41:02.688Z,12.50
2023-03-06T19:43:30.397Z,10.10
2023-03-06T19:45:58.309Z,10.43
2023-03-06T19:48:25.830Z,9.43
2023-03-06T19:50:53.354Z,10.67
2023-03-06T19:53:21.694Z,8.40
2023-03-06T19:55:49.299Z,9.63
2023-03-06T19:58:18.213Z,8.93
2023-03-06T20:00:45.878Z,10.13
2023-03-06T20:03:13.453Z,9.37
2023-03-06T20:05:46.366Z,17.40
2023-03-06T20:08:13.960Z,11.60
2023-03-06T20:10:41.550Z,9.07
2023-03-06T20:13:09.138Z,11.20
2023-03-06T20:15:38.143Z,11.13
2023-03-06T20:18:06.370Z,10.80
2023-03-06T20:20:33.923Z,8.90
2023-03-06T20:23:04.487Z,8.60
2023-03-06T20:25:32.222Z,8.70
2023-03-06T20:27:59.918Z,9.70
2023-03-06T20:30:36.685Z,9.23
2023-03-06T20:33:06.938Z,9.03
2023-03-06T20:35:34.489Z,9.20
2023-03-06T20:38:02.070Z,9.53
2023-03-06T20:40:29.748Z,9.23
2023-03-06T20:42:57.505Z,11.53
2023-03-06T20:45:25.145Z,8.93
2023-03-06T20:47:56.208Z,10.20
2023-03-06T20:50:25.600Z,11.33
2023-03-06T20:52:54.184Z,10.57
2023-03-06T20:55:21.786Z,11.57
2023-03-06T20:57:50.060Z,11.97
2023-03-06T21:00:18.290Z,11.53
2023-03-06T21:02:46.981Z,12.00
2023-03-06T21:05:14.697Z,10.20
2023-03-06T21:07:43.730Z,9.97
2023-03-06T21:10:11.970Z,9.95
2023-03-06T21:12:40.036Z,9.70
2023-03-06T21:15:08.370Z,9.10
2023-03-06T21:17:35.919Z,10.03
2023-03-06T21:20:05.433Z,8.90
2023-03-06T21:22:33.085Z,8.53
2023-03-06T21:25:02.122Z,8.17
2023-03-06T21:27:29.637Z,7.57
2023-03-06T21:29:57.143Z,8.60
2023-03-06T21:32:24.791Z,8.17
2023-03-06T21:34:52.560Z,7.53
2023-03-06T21:37:20.039Z,7.70
2023-03-06T21:39:47.648Z,7.23
2023-03-06T21:42:16.516Z,7.00
2023-03-06T21:44:44.072Z,8.07
2023-03-06T21:47:11.945Z,7.43
2023-03-06T21:49:39.625Z,7.80
2023-03-06T21:52:07.273Z,8.13
2023-03-06T21:54:36.179Z,7.97
2023-03-06T21:57:03.747Z,7.03
2023-03-06T21:59:32.668Z,7.30
2023-03-06T22:02:00.198Z,7.43
2023-03-06T22:04:29.510Z,8.40
2023-03-06T22:06:57.160Z,8.10
2023-03-06T22:09:24.827Z,8.73
2023-03-06T22:11:52.325Z,8.23
2023-03-06T22:14:19.909Z,8.03
2023-03-06T22:16:48.917Z,8.03
2023-03-06T22:19:16.606Z,8.53
2023-03-06T22:21:44.153Z,8.33
2023-03-06T22:24:11.676Z,8.93
2023-03-06T22:26:39.284Z,8.03
2023-03-06T22:29:06.918Z,7.80
2023-03-06T22:31:34.664Z,8.13
2023-03-06T22:34:03.699Z,8.23
2023-03-06T22:36:31.799Z,8.13
2023-03-06T22:39:00.529Z,8.10
2023-03-06T22:41:28.547Z,8.47
2023-03-06T22:43:56.819Z,8.80
2023-03-06T22:46:24.420Z,7.97
2023-03-06T22:48:51.984Z,8.07
2023-03-06T22:51:21.577Z,7.93
2023-03-06T22:53:50.618Z,7.90
2023-03-06T22:56:19.196Z,7.97
2023-03-06T22:58:47.149Z,8.37
2023-03-06T23:01:16.096Z,8.40
2023-03-06T23:03:44.481Z,8.33
2023-03-06T23:06:13.053Z,7.90
2023-03-06T23:08:42.262Z,8.60
2023-03-06T23:11:10.851Z,7.80
2023-03-06T23:13:38.696Z,8.37
2023-03-06T23:16:07.288Z,8.13
2023-03-06T23:18:35.132Z,7.97
2023-03-06T23:21:06.223Z,7.53
2023-03-06T23:23:34.140Z,8.07
2023-03-06T23:26:03.676Z,7.93
2023-03-06T23:28:31.545Z,7.87
2023-03-06T23:30:59.179Z,7.63
2023-03-06T23:33:27.029Z,8.00
2023-03-06T23:35:54.668Z,7.17
2023-03-06T23:38:22.223Z,8.40
2023-03-06T23:40:49.977Z,8.30
2023-03-06T23:43:18.955Z,8.93
2023-03-06T23:45:53.072Z,8.47
2023-03-06T23:48:20.626Z,7.70
2023-03-06T23:50:48.453Z,7.80
2023-03-06T23:53:15.989Z,8.13
2023-03-06T23:55:43.659Z,7.77
2023-03-06T23:58:11.634Z,8.70
